sensor_id;sensor_type;location;lat;lon;timestamp;P1;durP1;ratioP1;P2;durP2;ratioP2
23181;SDS011;11759;51.282;6.642;2023-04-24T00:01:59;3.78;;;1.60;;
23181;SDS011;11759;51.282;6.642;2023-04-24T00:04:25;2.22;;;1.33;;
23181;SDS011;11759;51.282;6.642;2023-04-24T00:06:52;2.00;;;1.30;;
23181;SDS011;11759;51.282;6.642;2023-04-24T00:09:23;5.53;;;2.37;;
23181;SDS011;11759;51.282;6.642;2023-04-24T00:11:50;2.25;;;1.52;;
23181;SDS011;11759;51.282;6.642;2023-04-24T00:14:17;2.25;;;1.52;;
23181;SDS011;11759;51.282;6.642;2023-04-24T00:16:43;4.10;;;1.75;;
23181;SDS011;11759;51.282;6.642;2023-04-24T00:19:11;2.55;;;1.70;;
23181;SDS011;11759;51.282;6.642;2023-04-24T00:21:39;3.35;;;1.90;;
23181;SDS011;11759;51.282;6.642;2023-04-24T00:24:06;3.38;;;2.17;;
23181;SDS011;11759;51.282;6.642;2023-04-24T00:26:35;2.33;;;1.50;;
23181;SDS011;11759;51.282;6.642;2023-04-24T00:29:01;4.45;;;2.55;;
23181;SDS011;11759;51.282;6.642;2023-04-24T00:31:28;3.00;;;2.03;;
23181;SDS011;11759;51.282;6.642;2023-04-24T00:33:55;4.60;;;2.17;;
23181;SDS011;11759;51.282;6.642;2023-04-24T00:36:22;5.15;;;2.65;;
23181;SDS011;11759;51.282;6.642;2023-04-24T00:38:49;2.47;;;2.15;;
23181;SDS011;11759;51.282;6.642;2023-04-24T00:41:15;9.80;;;3.00;;
23181;SDS011;11759;51.282;6.642;2023-04-24T00:43:42;6.60;;;3.03;;
23181;SDS011;11759;51.282;6.642;2023-04-24T00:46:09;7.55;;;3.97;;
23181;SDS011;11759;51.282;6.642;2023-04-24T00:48:37;8.50;;;3.75;;
23181;SDS011;11759;51.282;6.642;2023-04-24T00:51:06;7.93;;;4.18;;
23181;SDS011;11759;51.282;6.642;2023-04-24T00:53:33;17.85;;;4.25;;
23181;SDS011;11759;51.282;6.642;2023-04-24T00:55:59;5.30;;;4.03;;
23181;SDS011;11759;51.282;6.642;2023-04-24T00:58:27;8.27;;;3.95;;
23181;SDS011;11759;51.282;6.642;2023-04-24T01:00:55;11.48;;;4.38;;
23181;SDS011;11759;51.282;6.642;2023-04-24T01:03:26;9.15;;;3.65;;
23181;SDS011;11759;51.282;6.642;2023-04-24T01:05:56;5.95;;;3.92;;
23181;SDS011;11759;51.282;6.642;2023-04-24T01:08:24;9.43;;;4.40;;
23181;SDS011;11759;51.282;6.642;2023-04-24T01:10:51;6.00;;;4.40;;
23181;SDS011;11759;51.282;6.642;2023-04-24T01:13:19;9.02;;;4.72;;
23181;SDS011;11759;51.282;6.642;2023-04-24T01:15:46;8.30;;;4.75;;
23181;SDS011;11759;51.282;6.642;2023-04-24T01:18:13;14.00;;;5.35;;
23181;SDS011;11759;51.282;6.642;2023-04-24T01:20:41;8.55;;;5.45;;
23181;SDS011;11759;51.282;6.642;2023-04-24T01:23:08;9.50;;;5.65;;
23181;SDS011;11759;51.282;6.642;2023-04-24T01:25:36;7.55;;;4.97;;
23181;SDS011;11759;51.282;6.642;2023-04-24T01:28:03;8.70;;;5.22;;
23181;SDS011;11759;51.282;6.642;2023-04-24T01:30:30;8.55;;;4.93;;
23181;SDS011;11759;51.282;6.642;2023-04-24T01:32:57;13.02;;;5.15;;
23181;SDS011;11759;51.282;6.642;2023-04-24T01:35:25;13.40;;;6.30;;
23181;SDS011;11759;51.282;6.642;2023-04-24T01:37:52;13.82;;;5.97;;
23181;SDS011;11759;51.282;6.642;2023-04-24T01:40:18;16.10;;;6.68;;
23181;SDS011;11759;51.282;6.642;2023-04-24T01:42:45;12.00;;;7.10;;
23181;SDS011;11759;51.282;6.642;2023-04-24T01:45:12;10.73;;;6.47;;
23181;SDS011;11759;51.282;6.642;2023-04-24T01:47:41;10.23;;;6.47;;
23181;SDS011;11759;51.282;6.642;2023-04-24T01:50:08;13.95;;;7.00;;
23181;SDS011;11759;51.282;6.642;2023-04-24T01:52:37;15.98;;;7.03;;
23181;SDS011;11759;51.282;6.642;2023-04-24T01:55:04;15.27;;;7.80;;
23181;SDS011;11759;51.282;6.642;2023-04-24T01:57:32;16.48;;;7.18;;
23181;SDS011;11759;51.282;6.642;2023-04-24T01:59:59;16.17;;;9.10;;
23181;SDS011;11759;51.282;6.642;2023-04-24T02:02:41;17.40;;;8.20;;
23181;SDS011;11759;51.282;6.642;2023-04-24T02:05:13;19.15;;;8.27;;
23181;SDS011;11759;51.282;6.642;2023-04-24T02:07:39;19.50;;;8.45;;
23181;SDS011;11759;51.282;6.642;2023-04-24T02:10:09;19.17;;;8.52;;
23181;SDS011;11759;51.282;6.642;2023-04-24T02:12:40;18.73;;;9.65;;
23181;SDS011;11759;51.282;6.642;2023-04-24T02:15:07;19.67;;;9.15;;
23181;SDS011;11759;51.282;6.642;2023-04-24T02:17:36;19.40;;;10.60;;
23181;SDS011;11759;51.282;6.642;2023-04-24T02:20:03;17.88;;;9.50;;
23181;SDS011;11759;51.282;6.642;2023-04-24T02:22:30;26.73;;;10.27;;
23181;SDS011;11759;51.282;6.642;2023-04-24T02:25:02;15.60;;;8.20;;
23181;SDS011;11759;51.282;6.642;2023-04-24T02:27:29;22.67;;;10.95;;
23181;SDS011;11759;51.282;6.642;2023-04-24T02:29:56;25.95;;;10.48;;
23181;SDS011;11759;51.282;6.642;2023-04-24T02:36:46;22.15;;;10.13;;
23181;SDS011;11759;51.282;6.642;2023-04-24T02:39:14;24.70;;;10.93;;
23181;SDS011;11759;51.282;6.642;2023-04-24T02:41:43;23.92;;;11.88;;
23181;SDS011;11759;51.282;6.642;2023-04-24T02:44:09;29.38;;;11.40;;
23181;SDS011;11759;51.282;6.642;2023-04-24T02:46:37;25.75;;;12.02;;
23181;SDS011;11759;51.282;6.642;2023-04-24T02:49:04;21.52;;;10.02;;
23181;SDS011;11759;51.282;6.642;2023-04-24T02:51:31;25.42;;;12.05;;
23181;SDS011;11759;51.282;6.642;2023-04-24T02:53:57;26.45;;;11.43;;
23181;SDS011;11759;51.282;6.642;2023-04-24T02:56:24;22.38;;;11.70;;
23181;SDS011;11759;51.282;6.642;2023-04-24T02:58:52;26.52;;;11.68;;
23181;SDS011;11759;51.282;6.642;2023-04-24T03:01:18;23.88;;;11.63;;
23181;SDS011;11759;51.282;6.642;2023-04-24T03:03:45;27.67;;;12.23;;
23181;SDS011;11759;51.282;6.642;2023-04-24T03:06:12;32.47;;;12.27;;
23181;SDS011;11759;51.282;6.642;2023-04-24T03:08:39;26.55;;;12.60;;
23181;SDS011;11759;51.282;6.642;2023-04-24T03:11:06;24.67;;;11.57;;
23181;SDS011;11759;51.282;6.642;2023-04-24T03:13:35;30.52;;;12.57;;
23181;SDS011;11759;51.282;6.642;2023-04-24T03:16:02;21.80;;;11.98;;
23181;SDS011;11759;51.282;6.642;2023-04-24T03:18:29;25.65;;;11.23;;
23181;SDS011;11759;51.282;6.642;2023-04-24T03:20:56;21.65;;;11.23;;
23181;SDS011;11759;51.282;6.642;2023-04-24T03:23:23;27.40;;;11.90;;
23181;SDS011;11759;51.282;6.642;2023-04-24T03:25:50;30.10;;;12.35;;
23181;SDS011;11759;51.282;6.642;2023-04-24T03:28:18;25.70;;;12.07;;
23181;SDS011;11759;51.282;6.642;2023-04-24T03:30:57;23.83;;;11.13;;
23181;SDS011;11759;51.282;6.642;2023-04-24T03:33:25;20.25;;;11.27;;
23181;SDS011;11759;51.282;6.642;2023-04-24T03:36:01;26.80;;;10.98;;
23181;SDS011;11759;51.282;6.642;2023-04-24T03:38:36;23.45;;;11.15;;
23181;SDS011;11759;51.282;6.642;2023-04-24T03:41:18;22.85;;;11.13;;
23181;SDS011;11759;51.282;6.642;2023-04-24T03:43:49;21.57;;;12.13;;
23181;SDS011;11759;51.282;6.642;2023-04-24T03:46:15;25.67;;;12.20;;
23181;SDS011;11759;51.282;6.642;2023-04-24T03:48:52;24.60;;;11.10;;
23181;SDS011;11759;51.282;6.642;2023-04-24T03:51:22;24.48;;;11.90;;
23181;SDS011;11759;51.282;6.642;2023-04-24T03:53:52;22.65;;;11.18;;
23181;SDS011;11759;51.282;6.642;2023-04-24T03:56:26;22.10;;;11.02;;
23181;SDS011;11759;51.282;6.642;2023-04-24T03:58:52;26.80;;;10.82;;
23181;SDS011;11759;51.282;6.642;2023-04-24T04:01:19;18.35;;;10.52;;
23181;SDS011;11759;51.282;6.642;2023-04-24T04:04:07;23.73;;;10.65;;
23181;SDS011;11759;51.282;6.642;2023-04-24T04:06:36;25.52;;;11.73;;
23181;SDS011;11759;51.282;6.642;2023-04-24T04:09:07;27.38;;;12.07;;
23181;SDS011;11759;51.282;6.642;2023-04-24T04:11:35;25.95;;;11.23;;
23181;SDS011;11759;51.282;6.642;2023-04-24T04:14:02;31.42;;;11.88;;
23181;SDS011;11759;51.282;6.642;2023-04-24T04:16:29;27.13;;;11.07;;
23181;SDS011;11759;51.282;6.642;2023-04-24T04:19:01;20.52;;;10.90;;
23181;SDS011;11759;51.282;6.642;2023-04-24T04:21:29;21.98;;;10.55;;
23181;SDS011;11759;51.282;6.642;2023-04-24T04:24:08;18.88;;;10.52;;
23181;SDS011;11759;51.282;6.642;2023-04-24T04:26:40;23.75;;;9.80;;
23181;SDS011;11759;51.282;6.642;2023-04-24T04:29:14;16.40;;;9.50;;
23181;SDS011;11759;51.282;6.642;2023-04-24T04:31:45;20.02;;;10.80;;
23181;SDS011;11759;51.282;6.642;2023-04-24T04:34:13;20.30;;;9.45;;
23181;SDS011;11759;51.282;6.642;2023-04-24T04:36:41;14.75;;;8.88;;
23181;SDS011;11759;51.282;6.642;2023-04-24T04:39:40;17.48;;;9.55;;
23181;SDS011;11759;51.282;6.642;2023-04-24T04:42:11;18.70;;;9.05;;
23181;SDS011;11759;51.282;6.642;2023-04-24T04:44:41;18.73;;;9.88;;
23181;SDS011;11759;51.282;6.642;2023-04-24T04:47:14;22.35;;;9.10;;
23181;SDS011;11759;51.282;6.642;2023-04-24T04:49:41;19.23;;;9.18;;
23181;SDS011;11759;51.282;6.642;2023-04-24T04:52:17;16.80;;;9.35;;
23181;SDS011;11759;51.282;6.642;2023-04-24T04:54:48;22.38;;;8.95;;
23181;SDS011;11759;51.282;6.642;2023-04-24T04:57:15;17.75;;;9.40;;
23181;SDS011;11759;51.282;6.642;2023-04-24T04:59:43;18.58;;;9.35;;
23181;SDS011;11759;51.282;6.642;2023-04-24T05:02:18;16.70;;;9.63;;
23181;SDS011;11759;51.282;6.642;2023-04-24T05:04:45;23.02;;;10.65;;
23181;SDS011;11759;51.282;6.642;2023-04-24T05:07:13;22.42;;;10.55;;
23181;SDS011;11759;51.282;6.642;2023-04-24T05:09:45;21.83;;;10.20;;
23181;SDS011;11759;51.282;6.642;2023-04-24T05:12:13;16.95;;;10.48;;
23181;SDS011;11759;51.282;6.642;2023-04-24T05:14:47;16.58;;;10.10;;
23181;SDS011;11759;51.282;6.642;2023-04-24T05:17:14;18.48;;;10.25;;
23181;SDS011;11759;51.282;6.642;2023-04-24T05:19:41;16.02;;;9.88;;
23181;SDS011;11759;51.282;6.642;2023-04-24T05:22:08;18.63;;;10.18;;
23181;SDS011;11759;51.282;6.642;2023-04-24T05:24:44;17.95;;;9.95;;
23181;SDS011;11759;51.282;6.642;2023-04-24T05:27:31;17.70;;;10.15;;
23181;SDS011;11759;51.282;6.642;2023-04-24T05:29:58;21.30;;;10.60;;
23181;SDS011;11759;51.282;6.642;2023-04-24T05:32:27;20.63;;;9.70;;
23181;SDS011;11759;51.282;6.642;2023-04-24T05:34:54;20.00;;;9.48;;
23181;SDS011;11759;51.282;6.642;2023-04-24T05:37:21;16.77;;;10.00;;
23181;SDS011;11759;51.282;6.642;2023-04-24T05:39:48;18.48;;;9.70;;
23181;SDS011;11759;51.282;6.642;2023-04-24T05:42:33;19.00;;;10.23;;
23181;SDS011;11759;51.282;6.642;2023-04-24T05:45:00;15.38;;;9.63;;
23181;SDS011;11759;51.282;6.642;2023-04-24T05:47:28;16.40;;;9.57;;
23181;SDS011;11759;51.282;6.642;2023-04-24T05:49:56;20.58;;;10.48;;
23181;SDS011;11759;51.282;6.642;2023-04-24T05:52:23;18.08;;;10.02;;
23181;SDS011;11759;51.282;6.642;2023-04-24T05:54:50;19.23;;;9.57;;
23181;SDS011;11759;51.282;6.642;2023-04-24T05:57:24;18.35;;;9.30;;
23181;SDS011;11759;51.282;6.642;2023-04-24T06:00:09;17.38;;;8.98;;
23181;SDS011;11759;51.282;6.642;2023-04-24T06:02:48;18.27;;;9.50;;
23181;SDS011;11759;51.282;6.642;2023-04-24T06:05:16;16.30;;;9.45;;
23181;SDS011;11759;51.282;6.642;2023-04-24T06:07:44;19.20;;;9.35;;
23181;SDS011;11759;51.282;6.642;2023-04-24T06:10:11;19.55;;;9.45;;
23181;SDS011;11759;51.282;6.642;2023-04-24T06:12:43;15.77;;;8.68;;
23181;SDS011;11759;51.282;6.642;2023-04-24T06:15:15;21.45;;;8.43;;
23181;SDS011;11759;51.282;6.642;2023-04-24T06:18:17;14.15;;;7.82;;
23181;SDS011;11759;51.282;6.642;2023-04-24T06:20:44;13.23;;;7.78;;
23181;SDS011;11759;51.282;6.642;2023-04-24T06:23:11;18.92;;;8.50;;
23181;SDS011;11759;51.282;6.642;2023-04-24T06:25:38;15.90;;;7.15;;
23181;SDS011;11759;51.282;6.642;2023-04-24T06:28:05;11.57;;;6.90;;
23181;SDS011;11759;51.282;6.642;2023-04-24T06:30:32;18.17;;;8.23;;
23181;SDS011;11759;51.282;6.642;2023-04-24T06:32:58;18.92;;;7.90;;
23181;SDS011;11759;51.282;6.642;2023-04-24T06:35:38;12.93;;;7.65;;
23181;SDS011;11759;51.282;6.642;2023-04-24T06:38:05;14.52;;;6.93;;
23181;SDS011;11759;51.282;6.642;2023-04-24T06:40:32;10.68;;;6.30;;
23181;SDS011;11759;51.282;6.642;2023-04-24T06:42:59;16.80;;;7.80;;
23181;SDS011;11759;51.282;6.642;2023-04-24T06:45:30;11.88;;;7.05;;
23181;SDS011;11759;51.282;6.642;2023-04-24T06:47:57;11.68;;;6.90;;
23181;SDS011;11759;51.282;6.642;2023-04-24T06:50:24;13.57;;;7.50;;
23181;SDS011;11759;51.282;6.642;2023-04-24T06:52:50;15.65;;;7.90;;
23181;SDS011;11759;51.282;6.642;2023-04-24T06:55:17;16.40;;;8.05;;
23181;SDS011;11759;51.282;6.642;2023-04-24T06:57:44;11.05;;;6.90;;
23181;SDS011;11759;51.282;6.642;2023-04-24T07:00:11;13.77;;;6.43;;
23181;SDS011;11759;51.282;6.642;2023-04-24T07:02:38;10.38;;;5.50;;
23181;SDS011;11759;51.282;6.642;2023-04-24T07:05:08;10.15;;;5.53;;
23181;SDS011;11759;51.282;6.642;2023-04-24T07:07:39;9.40;;;4.65;;
23181;SDS011;11759;51.282;6.642;2023-04-24T07:10:06;12.13;;;3.65;;
23181;SDS011;11759;51.282;6.642;2023-04-24T07:12:35;6.60;;;3.80;;
23181;SDS011;11759;51.282;6.642;2023-04-24T07:15:02;6.43;;;3.45;;
23181;SDS011;11759;51.282;6.642;2023-04-24T07:17:29;6.90;;;3.30;;
23181;SDS011;11759;51.282;6.642;2023-04-24T07:19:56;6.13;;;3.58;;
23181;SDS011;11759;51.282;6.642;2023-04-24T07:22:22;6.40;;;3.53;;
23181;SDS011;11759;51.282;6.642;2023-04-24T07:24:49;6.22;;;3.60;;
23181;SDS011;11759;51.282;6.642;2023-04-24T07:27:16;5.55;;;2.45;;
23181;SDS011;11759;51.282;6.642;2023-04-24T07:29:43;3.03;;;2.20;;
23181;SDS011;11759;51.282;6.642;2023-04-24T07:32:10;3.38;;;1.83;;
23181;SDS011;11759;51.282;6.642;2023-04-24T07:34:37;2.10;;;1.42;;
23181;SDS011;11759;51.282;6.642;2023-04-24T07:37:05;2.30;;;1.30;;
23181;SDS011;11759;51.282;6.642;2023-04-24T07:39:32;4.25;;;1.50;;
23181;SDS011;11759;51.282;6.642;2023-04-24T07:41:59;5.05;;;1.63;;
23181;SDS011;11759;51.282;6.642;2023-04-24T07:44:29;2.55;;;1.65;;
23181;SDS011;11759;51.282;6.642;2023-04-24T07:46:55;3.80;;;1.40;;
23181;SDS011;11759;51.282;6.642;2023-04-24T07:49:23;1.95;;;1.50;;
23181;SDS011;11759;51.282;6.642;2023-04-24T07:51:50;3.50;;;1.45;;
23181;SDS011;11759;51.282;6.642;2023-04-24T07:54:18;2.65;;;1.95;;
23181;SDS011;11759;51.282;6.642;2023-04-24T07:56:46;3.55;;;1.90;;
23181;SDS011;11759;51.282;6.642;2023-04-24T07:59:13;4.03;;;1.90;;
23181;SDS011;11759;51.282;6.642;2023-04-24T08:01:40;6.85;;;2.63;;
23181;SDS011;11759;51.282;6.642;2023-04-24T08:04:07;4.80;;;2.45;;
23181;SDS011;11759;51.282;6.642;2023-04-24T08:06:34;7.05;;;2.83;;
23181;SDS011;11759;51.282;6.642;2023-04-24T08:09:01;4.60;;;3.55;;
23181;SDS011;11759;51.282;6.642;2023-04-24T08:11:29;4.85;;;2.90;;
23181;SDS011;11759;51.282;6.642;2023-04-24T08:13:55;5.93;;;2.88;;
23181;SDS011;11759;51.282;6.642;2023-04-24T08:16:22;5.72;;;2.80;;
23181;SDS011;11759;51.282;6.642;2023-04-24T08:18:50;5.65;;;2.42;;
23181;SDS011;11759;51.282;6.642;2023-04-24T08:21:17;8.23;;;2.60;;
23181;SDS011;11759;51.282;6.642;2023-04-24T08:23:45;2.67;;;2.10;;
23181;SDS011;11759;51.282;6.642;2023-04-24T08:26:12;2.30;;;1.90;;
23181;SDS011;11759;51.282;6.642;2023-04-24T08:28:40;3.25;;;2.30;;
23181;SDS011;11759;51.282;6.642;2023-04-24T08:31:06;6.05;;;2.42;;
23181;SDS011;11759;51.282;6.642;2023-04-24T08:33:33;4.72;;;2.40;;
23181;SDS011;11759;51.282;6.642;2023-04-24T08:36:04;3.65;;;2.90;;
23181;SDS011;11759;51.282;6.642;2023-04-24T08:38:31;4.45;;;2.70;;
23181;SDS011;11759;51.282;6.642;2023-04-24T08:40:58;5.07;;;2.80;;
23181;SDS011;11759;51.282;6.642;2023-04-24T08:43:26;4.38;;;3.38;;
23181;SDS011;11759;51.282;6.642;2023-04-24T08:45:56;5.97;;;3.10;;
23181;SDS011;11759;51.282;6.642;2023-04-24T08:48:23;6.97;;;3.30;;
23181;SDS011;11759;51.282;6.642;2023-04-24T08:51:07;21.40;;;8.70;;
23181;SDS011;11759;51.282;6.642;2023-04-24T08:53:35;20.48;;;11.40;;
23181;SDS011;11759;51.282;6.642;2023-04-24T08:56:02;17.83;;;7.90;;
23181;SDS011;11759;51.282;6.642;2023-04-24T08:58:29;19.55;;;7.90;;
23181;SDS011;11759;51.282;6.642;2023-04-24T09:00:57;15.95;;;6.95;;
23181;SDS011;11759;51.282;6.642;2023-04-24T09:03:24;13.20;;;7.47;;
23181;SDS011;11759;51.282;6.642;2023-04-24T09:05:54;15.25;;;8.10;;
23181;SDS011;11759;51.282;6.642;2023-04-24T09:08:22;22.73;;;7.90;;
23181;SDS011;11759;51.282;6.642;2023-04-24T09:10:50;13.35;;;7.68;;
23181;SDS011;11759;51.282;6.642;2023-04-24T09:13:18;17.85;;;9.48;;
23181;SDS011;11759;51.282;6.642;2023-04-24T09:15:46;18.83;;;9.52;;
23181;SDS011;11759;51.282;6.642;2023-04-24T09:18:12;21.27;;;9.77;;
23181;SDS011;11759;51.282;6.642;2023-04-24T09:23:44;23.20;;;10.52;;
23181;SDS011;11759;51.282;6.642;2023-04-24T09:26:11;23.02;;;10.77;;
23181;SDS011;11759;51.282;6.642;2023-04-24T09:28:39;21.33;;;9.65;;
23181;SDS011;11759;51.282;6.642;2023-04-24T09:31:11;19.25;;;8.95;;
23181;SDS011;11759;51.282;6.642;2023-04-24T09:33:39;24.70;;;10.48;;
23181;SDS011;11759;51.282;6.642;2023-04-24T09:36:06;29.35;;;11.02;;
23181;SDS011;11759;51.282;6.642;2023-04-24T09:38:36;28.73;;;11.05;;
23181;SDS011;11759;51.282;6.642;2023-04-24T09:41:06;29.73;;;11.63;;
23181;SDS011;11759;51.282;6.642;2023-04-24T09:43:33;33.33;;;12.70;;
23181;SDS011;11759;51.282;6.642;2023-04-24T09:46:05;31.67;;;12.45;;
23181;SDS011;11759;51.282;6.642;2023-04-24T09:48:35;32.75;;;12.30;;
23181;SDS011;11759;51.282;6.642;2023-04-24T09:51:02;26.52;;;12.52;;
23181;SDS011;11759;51.282;6.642;2023-04-24T09:53:30;34.55;;;12.00;;
23181;SDS011;11759;51.282;6.642;2023-04-24T09:56:09;36.58;;;12.77;;
23181;SDS011;11759;51.282;6.642;2023-04-24T09:58:36;36.67;;;13.90;;
23181;SDS011;11759;51.282;6.642;2023-04-24T10:01:03;31.10;;;12.82;;
23181;SDS011;11759;51.282;6.642;2023-04-24T10:03:33;34.50;;;15.35;;
23181;SDS011;11759;51.282;6.642;2023-04-24T10:06:03;35.28;;;13.80;;
23181;SDS011;11759;51.282;6.642;2023-04-24T10:08:36;35.92;;;13.00;;
23181;SDS011;11759;51.282;6.642;2023-04-24T10:11:03;36.47;;;14.43;;
23181;SDS011;11759;51.282;6.642;2023-04-24T10:13:30;40.28;;;15.27;;
23181;SDS011;11759;51.282;6.642;2023-04-24T10:15:58;30.67;;;14.77;;
23181;SDS011;11759;51.282;6.642;2023-04-24T10:18:27;39.03;;;14.77;;
23181;SDS011;11759;51.282;6.642;2023-04-24T10:20:57;32.78;;;13.95;;
23181;SDS011;11759;51.282;6.642;2023-04-24T10:23:26;36.40;;;14.57;;
23181;SDS011;11759;51.282;6.642;2023-04-24T10:25:54;32.10;;;14.18;;
23181;SDS011;11759;51.282;6.642;2023-04-24T10:28:21;36.88;;;13.52;;
23181;SDS011;11759;51.282;6.642;2023-04-24T10:30:48;31.27;;;12.35;;
23181;SDS011;11759;51.282;6.642;2023-04-24T10:33:16;35.45;;;10.95;;
23181;SDS011;11759;51.282;6.642;2023-04-24T10:35:44;33.05;;;11.57;;
23181;SDS011;11759;51.282;6.642;2023-04-24T10:38:15;31.08;;;11.38;;
23181;SDS011;11759;51.282;6.642;2023-04-24T10:40:45;39.25;;;12.52;;
23181;SDS011;11759;51.282;6.642;2023-04-24T10:43:14;38.22;;;12.77;;
23181;SDS011;11759;51.282;6.642;2023-04-24T10:45:44;38.65;;;13.27;;
23181;SDS011;11759;51.282;6.642;2023-04-24T10:48:27;29.65;;;13.00;;
23181;SDS011;11759;51.282;6.642;2023-04-24T10:50:53;36.95;;;14.32;;
23181;SDS011;11759;51.282;6.642;2023-04-24T10:53:21;45.00;;;16.40;;
23181;SDS011;11759;51.282;6.642;2023-04-24T10:56:03;50.05;;;15.15;;
23181;SDS011;11759;51.282;6.642;2023-04-24T10:58:50;37.97;;;14.45;;
23181;SDS011;11759;51.282;6.642;2023-04-24T11:01:28;37.55;;;14.27;;
23181;SDS011;11759;51.282;6.642;2023-04-24T11:03:57;36.10;;;13.10;;
23181;SDS011;11759;51.282;6.642;2023-04-24T11:06:29;39.17;;;13.02;;
23181;SDS011;11759;51.282;6.642;2023-04-24T11:09:01;32.28;;;10.88;;
23181;SDS011;11759;51.282;6.642;2023-04-24T11:11:35;40.38;;;10.75;;
23181;SDS011;11759;51.282;6.642;2023-04-24T11:14:04;39.03;;;9.00;;
23181;SDS011;11759;51.282;6.642;2023-04-24T11:19:02;34.17;;;9.63;;
23181;SDS011;11759;51.282;6.642;2023-04-24T11:21:38;22.85;;;7.60;;
23181;SDS011;11759;51.282;6.642;2023-04-24T11:27:05;27.70;;;7.25;;
23181;SDS011;11759;51.282;6.642;2023-04-24T11:32:28;29.25;;;7.63;;
23181;SDS011;11759;51.282;6.642;2023-04-24T11:35:14;18.83;;;7.20;;
23181;SDS011;11759;51.282;6.642;2023-04-24T11:37:46;21.70;;;6.30;;
23181;SDS011;11759;51.282;6.642;2023-04-24T11:40:35;18.73;;;7.15;;
23181;SDS011;11759;51.282;6.642;2023-04-24T11:43:04;26.10;;;6.80;;
23181;SDS011;11759;51.282;6.642;2023-04-24T11:45:33;25.00;;;6.45;;
23181;SDS011;11759;51.282;6.642;2023-04-24T11:48:02;22.20;;;6.63;;
23181;SDS011;11759;51.282;6.642;2023-04-24T11:50:29;16.60;;;6.07;;
23181;SDS011;11759;51.282;6.642;2023-04-24T11:52:56;20.48;;;6.10;;
23181;SDS011;11759;51.282;6.642;2023-04-24T11:55:40;16.00;;;5.32;;
23181;SDS011;11759;51.282;6.642;2023-04-24T11:58:07;14.82;;;4.95;;
23181;SDS011;11759;51.282;6.642;2023-04-24T12:00:35;22.50;;;5.88;;
23181;SDS011;11759;51.282;6.642;2023-04-24T12:05:33;7.80;;;4.72;;
23181;SDS011;11759;51.282;6.642;2023-04-24T12:08:01;18.02;;;4.43;;
23181;SDS011;11759;51.282;6.642;2023-04-24T12:10:29;17.52;;;5.63;;
23181;SDS011;11759;51.282;6.642;2023-04-24T12:12:57;17.58;;;4.78;;
23181;SDS011;11759;51.282;6.642;2023-04-24T12:15:24;19.38;;;3.97;;
23181;SDS011;11759;51.282;6.642;2023-04-24T12:17:52;13.48;;;4.78;;
23181;SDS011;11759;51.282;6.642;2023-04-24T12:20:27;18.70;;;4.05;;
23181;SDS011;11759;51.282;6.642;2023-04-24T12:22:56;14.07;;;4.03;;
23181;SDS011;11759;51.282;6.642;2023-04-24T12:25:27;14.55;;;3.97;;
23181;SDS011;11759;51.282;6.642;2023-04-24T12:30:32;11.82;;;3.53;;
23181;SDS011;11759;51.282;6.642;2023-04-24T12:33:07;12.60;;;3.40;;
23181;SDS011;11759;51.282;6.642;2023-04-24T12:35:34;14.50;;;3.13;;
23181;SDS011;11759;51.282;6.642;2023-04-24T12:38:08;6.82;;;2.63;;
23181;SDS011;11759;51.282;6.642;2023-04-24T12:40:36;9.07;;;2.25;;
23181;SDS011;11759;51.282;6.642;2023-04-24T12:43:12;6.53;;;1.90;;
23181;SDS011;11759;51.282;6.642;2023-04-24T12:45:49;2.92;;;1.60;;
23181;SDS011;11759;51.282;6.642;2023-04-24T12:48:20;8.70;;;1.70;;
23181;SDS011;11759;51.282;6.642;2023-04-24T12:50:48;4.43;;;1.60;;
23181;SDS011;11759;51.282;6.642;2023-04-24T12:53:15;7.10;;;1.83;;
23181;SDS011;11759;51.282;6.642;2023-04-24T12:55:42;4.85;;;1.90;;
23181;SDS011;11759;51.282;6.642;2023-04-24T12:58:10;8.50;;;1.80;;
23181;SDS011;11759;51.282;6.642;2023-04-24T13:00:38;7.53;;;1.60;;
23181;SDS011;11759;51.282;6.642;2023-04-24T13:03:06;4.72;;;1.75;;
23181;SDS011;11759;51.282;6.642;2023-04-24T13:05:33;5.07;;;1.65;;
23181;SDS011;11759;51.282;6.642;2023-04-24T13:08:00;3.33;;;1.40;;
23181;SDS011;11759;51.282;6.642;2023-04-24T13:10:27;7.10;;;1.77;;
23181;SDS011;11759;51.282;6.642;2023-04-24T13:12:54;5.30;;;1.08;;
23181;SDS011;11759;51.282;6.642;2023-04-24T13:15:20;4.50;;;1.35;;
23181;SDS011;11759;51.282;6.642;2023-04-24T13:17:47;5.93;;;1.50;;
23181;SDS011;11759;51.282;6.642;2023-04-24T13:20:14;5.43;;;1.17;;
23181;SDS011;11759;51.282;6.642;2023-04-24T13:22:40;4.60;;;1.45;;
23181;SDS011;11759;51.282;6.642;2023-04-24T13:25:07;5.75;;;1.38;;
23181;SDS011;11759;51.282;6.642;2023-04-24T13:27:35;2.22;;;1.13;;
23181;SDS011;11759;51.282;6.642;2023-04-24T13:30:01;5.95;;;1.20;;
23181;SDS011;11759;51.282;6.642;2023-04-24T13:32:28;4.90;;;1.20;;
23181;SDS011;11759;51.282;6.642;2023-04-24T13:34:56;5.03;;;1.63;;
23181;SDS011;11759;51.282;6.642;2023-04-24T13:37:23;5.25;;;1.38;;
23181;SDS011;11759;51.282;6.642;2023-04-24T13:39:49;2.75;;;1.23;;
23181;SDS011;11759;51.282;6.642;2023-04-24T13:42:17;4.90;;;1.63;;
23181;SDS011;11759;51.282;6.642;2023-04-24T13:44:45;5.93;;;1.40;;
23181;SDS011;11759;51.282;6.642;2023-04-24T13:47:11;5.40;;;1.50;;
23181;SDS011;11759;51.282;6.642;2023-04-24T13:49:38;3.38;;;1.40;;
23181;SDS011;11759;51.282;6.642;2023-04-24T13:52:05;5.85;;;1.63;;
23181;SDS011;11759;51.282;6.642;2023-04-24T13:54:31;5.10;;;1.58;;
23181;SDS011;11759;51.282;6.642;2023-04-24T13:56:59;10.45;;;2.03;;
23181;SDS011;11759;51.282;6.642;2023-04-24T13:59:26;8.70;;;1.40;;
23181;SDS011;11759;51.282;6.642;2023-04-24T14:01:53;5.40;;;1.55;;
23181;SDS011;11759;51.282;6.642;2023-04-24T14:04:20;5.13;;;1.52;;
23181;SDS011;11759;51.282;6.642;2023-04-24T14:06:47;5.55;;;1.33;;
23181;SDS011;11759;51.282;6.642;2023-04-24T14:09:14;2.25;;;1.35;;
23181;SDS011;11759;51.282;6.642;2023-04-24T14:11:41;6.60;;;1.50;;
23181;SDS011;11759;51.282;6.642;2023-04-24T14:14:07;5.60;;;1.40;;
23181;SDS011;11759;51.282;6.642;2023-04-24T14:16:34;2.28;;;1.00;;
23181;SDS011;11759;51.282;6.642;2023-04-24T14:19:01;9.20;;;1.40;;
23181;SDS011;11759;51.282;6.642;2023-04-24T14:21:28;5.47;;;1.30;;
23181;SDS011;11759;51.282;6.642;2023-04-24T14:23:54;4.50;;;1.38;;
23181;SDS011;11759;51.282;6.642;2023-04-24T14:26:21;2.72;;;1.45;;
23181;SDS011;11759;51.282;6.642;2023-04-24T14:28:48;5.80;;;1.60;;
23181;SDS011;11759;51.282;6.642;2023-04-24T14:31:16;5.22;;;1.30;;
23181;SDS011;11759;51.282;6.642;2023-04-24T14:33:43;7.38;;;1.60;;
23181;SDS011;11759;51.282;6.642;2023-04-24T14:36:10;4.00;;;1.40;;
23181;SDS011;11759;51.282;6.642;2023-04-24T14:38:37;5.82;;;1.35;;
23181;SDS011;11759;51.282;6.642;2023-04-24T14:41:03;4.53;;;1.42;;
23181;SDS011;11759;51.282;6.642;2023-04-24T14:43:39;7.25;;;1.65;;
23181;SDS011;11759;51.282;6.642;2023-04-24T14:46:22;2.95;;;1.23;;
23181;SDS011;11759;51.282;6.642;2023-04-24T14:48:49;5.45;;;1.52;;
23181;SDS011;11759;51.282;6.642;2023-04-24T14:51:16;5.30;;;1.50;;
23181;SDS011;11759;51.282;6.642;2023-04-24T14:53:43;4.65;;;1.63;;
23181;SDS011;11759;51.282;6.642;2023-04-24T14:56:21;4.60;;;1.33;;
23181;SDS011;11759;51.282;6.642;2023-04-24T14:58:58;5.53;;;1.50;;
23181;SDS011;11759;51.282;6.642;2023-04-24T15:01:25;2.40;;;1.65;;
23181;SDS011;11759;51.282;6.642;2023-04-24T15:03:52;7.65;;;1.80;;
23181;SDS011;11759;51.282;6.642;2023-04-24T15:06:19;3.55;;;1.30;;
23181;SDS011;11759;51.282;6.642;2023-04-24T15:08:46;4.45;;;1.52;;